Time;durP1;ratioP1;P1;durP2;ratioP2;P2;SDS_P1;SDS_P2;PMS_P1;PMS_P2;Temp;Humidity;BMP_temperature;BMP_pressure;BME280_temperature;BME280_humidity;BME280_pressure;Samples;Min_cycle;Max_cycle;Signal;HPM_P1;HPM_P2
2022/01/20 00:00:55;;;;;;;34.47;21.53;;;;;;;-2.75;60.06;95611.44;5017177;28;20257;-62
2022/01/20 00:03:24;;;;;;;30.60;19.30;;;;;;;-2.83;60.13;95599.72;5010932;28;20218;-63
2022/01/20 00:28:10;;;;;;;26.97;17.73;;;;;;;-3.01;59.39;95588.38;5033741;28;20257;-66
2022/01/20 00:38:15;;;;;;;29.77;17.60;;;;;;;-2.93;58.25;95570.94;5035693;28;20231;-63
2022/01/20 00:40:40;;;;;;;27.87;17.83;;;;;;;-2.90;58.00;95571.66;5031641;28;20329;-63
2022/01/20 00:43:06;;;;;;;29.83;19.37;;;;;;;-3.09;58.80;95570.66;5018750;28;20237;-65
2022/01/20 00:45:31;;;;;;;28.03;18.07;;;;;;;-3.01;59.04;95573.78;5019980;28;20229;-64
2022/01/20 00:47:57;;;;;;;25.83;17.60;;;;;;;-2.91;58.51;95569.16;5016568;28;20214;-63
2022/01/20 00:50:24;;;;;;;24.20;18.03;;;;;;;-2.82;58.06;95573.09;5015580;28;20235;-64
2022/01/20 00:52:50;;;;;;;24.13;17.30;;;;;;;-2.92;58.73;95568.28;5016712;28;20227;-65
2022/01/20 00:55:16;;;;;;;32.93;19.93;;;;;;;-2.99;58.07;95559.13;5014601;28;20226;-64
2022/01/20 00:57:41;;;;;;;35.47;20.03;;;;;;;-2.94;58.52;95564.09;5015751;28;20256;-65
2022/01/20 01:00:10;;;;;;;31.17;18.67;;;;;;;-2.94;58.64;95564.09;5016471;28;20329;-63
2022/01/20 01:02:35;;;;;;;25.93;17.93;;;;;;;-3.00;58.61;95559.19;5016427;28;20246;-64
2022/01/20 01:05:02;;;;;;;28.33;18.27;;;;;;;-3.15;59.14;95563.19;5016752;28;20237;-63
2022/01/20 01:10:09;;;;;;;27.00;18.87;;;;;;;-3.23;59.39;95560.03;5023219;28;20222;-64
2022/01/20 01:12:47;;;;;;;30.77;20.43;;;;;;;-3.39;60.83;95565.72;5016751;28;20391;-66
2022/01/20 01:15:21;;;;;;;30.87;19.50;;;;;;;-3.47;60.71;95556.63;5019318;28;20247;-64
2022/01/20 01:20:45;;;;;;;29.73;19.87;;;;;;;-3.44;60.53;95549.63;5021823;28;20253;-65
2022/01/20 01:23:11;;;;;;;34.70;20.17;;;;;;;-3.23;59.71;95537.72;5020270;28;20226;-63
2022/01/20 01:25:36;;;;;;;29.83;20.20;;;;;;;-3.11;59.11;95550.13;5021049;28;20241;-65
2022/01/20 01:28:02;;;;;;;30.40;20.23;;;;;;;-3.28;59.80;95538.78;5019302;28;20213;-64
2022/01/20 01:30:52;;;;;;;34.67;20.80;;;;;;;-3.51;60.67;95543.00;5016648;28;20252;-66
2022/01/20 01:33:18;;;;;;;38.10;21.83;;;;;;;-3.46;60.91;95535.16;5019117;28;20200;-63
2022/01/20 01:35:44;;;;;;;34.33;22.60;;;;;;;-3.52;61.34;95541.34;5017932;28;20241;-64
2022/01/20 01:40:38;;;;;;;35.93;21.83;;;;;;;-3.66;62.26;95523.84;5023109;28;20230;-67
2022/01/20 01:43:12;;;;;;;37.83;23.00;;;;;;;-3.70;62.32;95527.41;5019041;28;20227;-64
2022/01/20 01:45:40;;;;;;;31.07;19.87;;;;;;;-3.53;61.21;95524.22;5018349;28;20203;-65
2022/01/20 01:48:06;;;;;;;37.97;22.33;;;;;;;-3.61;62.06;95526.22;5021073;28;20294;-65
2022/01/20 01:50:32;;;;;;;36.03;23.23;;;;;;;-3.64;62.55;95526.34;5015643;28;20219;-65
2022/01/20 01:53:01;;;;;;;32.23;23.23;;;;;;;-3.72;62.47;95518.91;5016902;28;20290;-65
2022/01/20 01:55:26;;;;;;;39.63;24.40;;;;;;;-3.85;62.90;95522.78;5016369;28;20559;-63
2022/01/20 01:57:52;;;;;;;40.80;23.97;;;;;;;-3.66;62.23;95513.56;5020210;28;20227;-64
2022/01/20 02:00:18;;;;;;;34.67;23.43;;;;;;;-3.71;62.45;95510.31;5019141;28;20205;-63
2022/01/20 02:02:44;;;;;;;33.43;22.97;;;;;;;-3.67;62.74;95506.72;5020123;28;20234;-66
2022/01/20 02:05:13;;;;;;;34.10;23.63;;;;;;;-3.68;62.41;95504.22;5014619;28;20219;-64
2022/01/20 02:18:51;;;;;;;34.97;21.00;;;;;;;-3.59;61.29;95491.88;5021446;28;20229;-65
2022/01/20 02:21:17;;;;;;;35.70;22.27;;;;;;;-3.72;61.57;95482.91;5017481;28;20206;-65
2022/01/20 02:23:43;;;;;;;33.13;20.60;;;;;;;-3.71;61.26;95484.63;5019119;28;20234;-65
2022/01/20 02:26:09;;;;;;;34.03;21.40;;;;;;;-3.75;62.07;95484.78;5018582;28;20242;-66
2022/01/20 02:28:35;;;;;;;29.67;20.90;;;;;;;-3.66;61.59;95475.00;5014370;28;20223;-67
2022/01/20 02:31:00;;;;;;;27.67;19.03;;;;;;;-3.81;61.69;95473.81;5002991;28;20265;-64
2022/01/20 02:33:29;;;;;;;29.10;19.50;;;;;;;-3.94;62.28;95477.69;5019592;28;20209;-65
2022/01/20 02:36:01;;;;;;;29.90;19.60;;;;;;;-3.87;62.38;95478.34;5017925;28;20219;-65
2022/01/20 02:46:24;;;;;;;26.90;18.87;;;;;;;-3.89;62.19;95469.84;5018110;28;20237;-68
2022/01/20 02:48:49;;;;;;;32.47;20.77;;;;;;;-3.89;62.21;95464.69;5020127;28;20230;-67
2022/01/20 02:51:15;;;;;;;31.63;20.67;;;;;;;-3.80;61.86;95472.91;5018776;28;20240;-65
2022/01/20 02:53:40;;;;;;;29.40;19.87;;;;;;;-3.78;61.95;95470.28;5021859;28;20223;-64
2022/01/20 02:56:06;;;;;;;32.43;20.67;;;;;;;-3.95;62.82;95470.06;5016539;28;20249;-64
2022/01/20 02:58:31;;;;;;;30.67;19.43;;;;;;;-4.05;63.17;95459.25;5019943;28;20292;-63
2022/01/20 03:00:57;;;;;;;28.37;19.40;;;;;;;-4.01;63.09;95461.69;5017975;28;20218;-62
2022/01/20 03:03:23;;;;;;;29.77;19.50;;;;;;;-3.89;62.79;95465.53;5017367;28;20254;-62
2022/01/20 03:05:49;;;;;;;26.70;18.20;;;;;;;-3.94;62.80;95451.19;5021780;28;20223;-67
2022/01/20 03:08:14;;;;;;;27.90;19.27;;;;;;;-4.03;62.66;95453.19;5017980;28;20230;-62
2022/01/20 03:10:40;;;;;;;28.33;19.50;;;;;;;-3.96;62.26;95455.53;5016202;28;20233;-68
2022/01/20 03:13:06;;;;;;;28.70;18.43;;;;;;;-3.92;62.29;95451.97;5014993;28;20227;-63
2022/01/20 03:15:34;;;;;;;31.00;19.17;;;;;;;-3.93;62.58;95457.97;4998901;28;20218;-67
2022/01/20 03:18:01;;;;;;;30.50;18.93;;;;;;;-3.90;62.32;95450.16;5021550;28;20206;-64
2022/01/20 03:20:26;;;;;;;30.63;19.43;;;;;;;-3.90;62.30;95442.47;5018535;28;20229;-63
2022/01/20 03:22:52;;;;;;;30.77;19.63;;;;;;;-4.09;62.91;95432.00;5013915;28;20235;-66
2022/01/20 03:25:17;;;;;;;31.03;20.50;;;;;;;-3.91;63.08;95458.78;5017125;28;20258;-62
2022/01/20 03:27:43;;;;;;;33.27;21.33;;;;;;;-4.08;63.38;95454.25;5017583;28;20202;-63
2022/01/20 03:30:09;;;;;;;33.20;19.47;;;;;;;-4.06;63.92;95453.28;5013536;28;20215;-64
2022/01/20 03:32:35;;;;;;;36.03;21.53;;;;;;;-4.12;63.62;95443.22;5020043;28;20225;-67
2022/01/20 03:35:03;;;;;;;27.73;19.70;;;;;;;-4.04;63.58;95446.34;5015183;28;20218;-63
2022/01/20 03:37:29;;;;;;;31.50;21.00;;;;;;;-3.84;62.69;95443.09;5019611;28;20217;-67
2022/01/20 03:39:54;;;;;;;30.33;20.27;;;;;;;-4.00;62.46;95436.81;5019675;28;20222;-66
2022/01/20 03:42:20;;;;;;;29.63;20.17;;;;;;;-3.98;62.80;95445.31;5017761;28;20214;-64
2022/01/20 03:44:45;;;;;;;29.37;19.07;;;;;;;-3.92;62.15;95439.97;5020627;28;20237;-66
2022/01/20 03:47:11;;;;;;;33.40;19.43;;;;;;;-4.00;62.35;95427.38;5018764;28;20223;-63
2022/01/20 03:49:53;;;;;;;30.07;18.77;;;;;;;-3.99;62.57;95438.50;5010790;28;20322;-63
2022/01/20 03:52:18;;;;;;;28.70;18.33;;;;;;;-3.84;61.81;95426.84;5005554;28;20246;-63
2022/01/20 03:54:44;;;;;;;25.23;17.70;;;;;;;-3.96;61.69;95429.84;5015636;28;20206;-65
2022/01/20 03:57:10;;;;;;;30.87;19.00;;;;;;;-4.06;62.70;95427.59;5018174;28;20266;-62
2022/01/20 03:59:35;;;;;;;29.00;19.20;;;;;;;-4.03;62.81;95427.50;5014467;28;20217;-65
2022/01/20 04:02:01;;;;;;;29.03;19.40;;;;;;;-3.85;61.59;95422.56;5019276;28;20228;-62
2022/01/20 04:04:26;;;;;;;35.47;21.13;;;;;;;-3.99;62.22;95430.78;5015508;28;20230;-66
2022/01/20 04:06:52;;;;;;;24.63;17.83;;;;;;;-3.95;62.02;95419.53;5013658;28;20219;-62
2022/01/20 04:09:17;;;;;;;29.83;19.63;;;;;;;-4.03;62.05;95427.50;5009445;28;20199;-63
2022/01/20 04:11:44;;;;;;;25.17;18.73;;;;;;;-4.10;62.39;95426.03;5015555;28;20226;-64
2022/01/20 04:14:12;;;;;;;25.20;18.67;;;;;;;-4.20;62.57;95429.78;5014867;28;20237;-64
2022/01/20 04:17:02;;;;;;;26.23;17.90;;;;;;;-4.24;62.31;95418.81;5007851;28;20230;-64
2022/01/20 04:19:30;;;;;;;29.43;18.47;;;;;;;-4.26;61.96;95422.31;5003317;28;20239;-67
2022/01/20 04:21:56;;;;;;;25.80;18.83;;;;;;;-4.28;62.66;95424.09;5018257;28;20230;-65
2022/01/20 04:24:22;;;;;;;28.00;17.87;;;;;;;-4.22;62.23;95418.75;5010700;28;20234;-64
2022/01/20 04:26:48;;;;;;;26.67;16.17;;;;;;;-4.22;61.88;95417.03;5014118;28;20219;-64
2022/01/20 04:29:16;;;;;;;20.83;13.90;;;;;;;-4.13;61.22;95423.56;5018389;28;20309;-64
2022/01/20 04:31:43;;;;;;;20.23;13.20;;;;;;;-4.11;61.18;95410.69;5018177;28;20224;-67
2022/01/20 04:34:10;;;;;;;17.73;12.07;;;;;;;-4.09;60.60;95425.16;5011289;28;20270;-64
2022/01/20 04:36:40;;;;;;;20.37;12.97;;;;;;;-4.11;60.95;95420.97;5018755;28;20206;-65
2022/01/20 04:39:20;;;;;;;19.73;12.20;;;;;;;-3.96;60.52;95417.00;5017501;28;20190;-63
2022/01/20 04:41:46;;;;;;;22.57;14.17;;;;;;;-3.92;60.57;95418.56;5012975;28;20223;-63
2022/01/20 04:44:29;;;;;;;22.63;14.87;;;;;;;-4.09;61.61;95419.16;5018805;28;20250;-65
2022/01/20 04:47:04;;;;;;;26.17;16.93;;;;;;;-4.05;61.71;95424.13;5015912;28;20240;-62
2022/01/20 04:57:42;;;;;;;25.73;17.93;;;;;;;-4.48;63.39;95417.91;5018212;28;20221;-63
2022/01/20 05:00:08;;;;;;;32.03;18.83;;;;;;;-4.47;63.66;95419.59;5016585;28;20206;-63
2022/01/20 05:02:33;;;;;;;24.13;17.77;;;;;;;-4.80;64.22;95415.59;5017065;28;20211;-63
2022/01/20 05:04:59;;;;;;;29.83;18.63;;;;;;;-4.80;64.36;95418.16;5015173;28;20218;-63
2022/01/20 05:07:27;;;;;;;26.57;18.60;;;;;;;-4.79;64.47;95407.81;5012823;28;20219;-64
2022/01/20 05:09:54;;;;;;;26.20;20.03;;;;;;;-4.72;64.37;95417.00;5015212;28;20238;-63
2022/01/20 05:12:26;;;;;;;25.40;18.53;;;;;;;-4.64;64.11;95414.19;5017914;28;20231;-63
2022/01/20 05:14:52;;;;;;;31.17;19.47;;;;;;;-4.47;63.28;95422.16;5016953;28;20251;-63
2022/01/20 05:17:17;;;;;;;28.13;19.47;;;;;;;-4.25;62.58;95416.28;5013777;28;20237;-64
2022/01/20 05:19:43;;;;;;;27.17;19.40;;;;;;;-4.20;62.54;95414.38;5011996;28;20334;-63
2022/01/20 05:22:08;;;;;;;24.80;18.17;;;;;;;-4.28;62.46;95417.22;5016875;28;20241;-63
2022/01/20 05:24:34;;;;;;;27.93;18.17;;;;;;;-4.40;63.34;95407.38;5017401;28;20202;-62
2022/01/20 05:26:59;;;;;;;28.67;19.40;;;;;;;-4.30;63.28;95418.19;5013185;28;20207;-63
2022/01/20 05:29:25;;;;;;;28.43;18.47;;;;;;;-4.25;63.11;95416.28;5010111;28;20227;-63
2022/01/20 05:31:51;;;;;;;25.60;17.13;;;;;;;-4.35;62.83;95417.50;5005230;28;20221;-64
2022/01/20 05:34:17;;;;;;;33.43;18.17;;;;;;;-4.40;62.93;95416.81;5018415;28;20229;-65
2022/01/20 05:36:44;;;;;;;25.47;16.17;;;;;;;-4.40;63.11;95425.38;5013821;28;20203;-63
2022/01/20 05:39:09;;;;;;;25.23;17.43;;;;;;;-4.32;62.85;95431.06;5016178;28;20202;-63
2022/01/20 05:41:35;;;;;;;23.30;17.93;;;;;;;-4.46;63.37;95423.00;5017590;28;20222;-64
2022/01/20 05:44:01;;;;;;;24.17;17.33;;;;;;;-4.41;62.90;95421.13;5010311;28;20230;-63
2022/01/20 05:46:34;;;;;;;28.23;17.57;;;;;;;-4.36;62.96;95418.38;5014702;28;20238;-62
2022/01/20 05:49:08;;;;;;;23.27;15.63;;;;;;;-4.42;63.32;95422.00;5014448;28;20233;-63
2022/01/20 05:51:40;;;;;;;25.23;15.90;;;;;;;-4.40;63.19;95419.41;5010312;28;20210;-62
2022/01/20 05:54:07;;;;;;;23.40;14.90;;;;;;;-4.49;62.96;95418.81;5015783;28;20234;-66
2022/01/20 05:56:33;;;;;;;19.83;14.53;;;;;;;-4.33;63.37;95425.97;5014610;28;20229;-62
2022/01/20 05:58:59;;;;;;;24.00;14.40;;;;;;;-4.41;63.19;95422.84;5011417;28;20338;-62
2022/01/20 06:01:26;;;;;;;23.00;14.77;;;;;;;-4.31;63.12;95422.47;5020248;28;20226;-63
2022/01/20 06:03:52;;;;;;;23.47;14.73;;;;;;;-4.17;62.77;95439.13;5019220;28;20230;-62
2022/01/20 06:06:17;;;;;;;20.63;14.10;;;;;;;-4.09;62.29;95422.59;5019245;28;20219;-63
2022/01/20 06:08:44;;;;;;;21.30;15.13;;;;;;;-4.12;62.30;95430.38;5020347;28;20227;-62
2022/01/20 06:11:09;;;;;;;26.60;15.87;;;;;;;-3.95;61.58;95416.13;5018714;28;20230;-61
2022/01/20 06:13:35;;;;;;;21.07;14.13;;;;;;;-3.95;61.42;95421.25;5015542;28;20527;-64
2022/01/20 06:16:01;;;;;;;19.67;13.57;;;;;;;-3.96;61.29;95419.56;5019667;28;20234;-63
2022/01/20 06:18:27;;;;;;;22.17;14.77;;;;;;;-3.90;61.62;95422.75;5016672;28;20215;-63
2022/01/20 06:20:53;;;;;;;25.57;14.73;;;;;;;-3.90;60.94;95417.63;5016553;28;20227;-64
2022/01/20 06:23:19;;;;;;;19.57;14.23;;;;;;;-3.89;60.74;95423.59;5022099;28;20219;-64
2022/01/20 06:25:45;;;;;;;22.57;13.53;;;;;;;-3.77;60.28;95428.28;5019047;28;20214;-63
2022/01/20 06:28:12;;;;;;;17.73;11.93;;;;;;;-3.63;59.60;95436.34;5016849;28;20246;-65
2022/01/20 06:30:37;;;;;;;18.57;11.83;;;;;;;-3.59;58.84;95426.78;5020959;28;20210;-64
2022/01/20 06:33:03;;;;;;;19.17;11.87;;;;;;;-3.62;59.00;95422.59;5032260;28;20241;-63
2022/01/20 06:35:30;;;;;;;23.37;11.37;;;;;;;-3.53;58.21;95430.84;5017694;28;20237;-64
2022/01/20 06:37:56;;;;;;;15.57;11.13;;;;;;;-3.40;57.70;95426.94;5014670;28;20226;-64
2022/01/20 06:40:22;;;;;;;19.33;11.17;;;;;;;-3.40;57.89;95432.06;5017298;28;20230;-64
2022/01/20 06:42:48;;;;;;;23.43;12.03;;;;;;;-3.37;57.64;95426.81;5018005;28;20285;-63
2022/01/20 06:45:15;;;;;;;18.83;12.63;;;;;;;-3.35;57.94;95430.16;5015695;28;20218;-67
2022/01/20 06:47:41;;;;;;;17.97;12.27;;;;;;;-3.29;57.46;95429.91;5016811;28;20307;-65
2022/01/20 06:50:09;;;;;;;17.20;12.07;;;;;;;-3.26;57.40;95423.81;5017562;28;20249;-63
2022/01/20 06:52:35;;;;;;;19.80;12.53;;;;;;;-3.20;57.40;95410.75;5017290;28;20277;-65
2022/01/20 06:55:05;;;;;;;21.63;13.47;;;;;;;-3.14;56.94;95413.06;5016963;28;20310;-66
2022/01/20 06:57:31;;;;;;;20.73;13.57;;;;;;;-3.12;57.04;95409.56;5018172;28;20225;-65
2022/01/20 06:59:57;;;;;;;21.03;14.07;;;;;;;-3.05;57.00;95412.69;5016170;28;20273;-65
2022/01/20 07:02:23;;;;;;;19.70;12.93;;;;;;;-3.05;57.20;95406.72;5016799;28;20330;-64
2022/01/20 07:04:50;;;;;;;19.73;12.60;;;;;;;-2.96;57.27;95416.66;5013657;28;20226;-63
2022/01/20 07:07:15;;;;;;;21.20;13.63;;;;;;;-2.83;56.88;95417.88;5013923;28;20229;-65
2022/01/20 07:09:41;;;;;;;20.63;12.97;;;;;;;-2.79;56.23;95414.25;5013943;28;20218;-63
2022/01/20 07:12:07;;;;;;;22.40;13.00;;;;;;;-2.66;55.25;95415.44;5013950;28;20215;-63
2022/01/20 07:14:32;;;;;;;20.60;13.03;;;;;;;-2.61;54.91;95406.69;5014475;28;20224;-65
2022/01/20 07:16:58;;;;;;;17.60;12.30;;;;;;;-2.47;54.85;95422.41;5010282;28;20294;-63
2022/01/20 07:19:24;;;;;;;21.63;12.53;;;;;;;-2.45;54.35;95423.19;5014271;28;20242;-63
2022/01/20 07:21:50;;;;;;;17.67;12.50;;;;;;;-2.48;54.67;95424.16;5019711;28;20293;-63
2022/01/20 07:24:16;;;;;;;20.80;12.57;;;;;;;-2.41;55.02;95416.16;5016886;28;20220;-63
2022/01/20 07:26:41;;;;;;;19.60;12.70;;;;;;;-2.20;54.09;95411.84;5016003;28;20218;-63
2022/01/20 07:29:07;;;;;;;20.63;11.63;;;;;;;-2.13;53.59;95418.41;5031794;28;20304;-63
2022/01/20 07:31:33;;;;;;;19.73;12.07;;;;;;;-1.94;53.38;95405.59;5020198;28;20226;-65
2022/01/20 07:33:58;;;;;;;17.43;11.73;;;;;;;-1.91;53.07;95411.44;5017972;28;20218;-68
2022/01/20 07:36:24;;;;;;;18.90;11.80;;;;;;;-2.01;52.89;95408.41;5017086;28;20214;-64
2022/01/20 07:38:49;;;;;;;16.57;11.93;;;;;;;-1.93;53.03;95402.09;5014179;28;20218;-65
2022/01/20 07:41:16;;;;;;;18.93;12.17;;;;;;;-1.81;52.70;95423.00;5015857;28;20218;-63
2022/01/20 07:43:42;;;;;;;17.97;12.83;;;;;;;-1.68;52.03;95410.44;5021183;28;20257;-63
2022/01/20 07:46:08;;;;;;;21.67;13.10;;;;;;;-1.65;52.10;95399.13;5014422;28;20255;-64
2022/01/20 07:48:34;;;;;;;24.03;15.90;;;;;;;-1.56;52.07;95406.44;5021826;28;20328;-64
2022/01/20 07:51:00;;;;;;;20.83;14.23;;;;;;;-1.49;51.98;95405.28;5018023;28;20207;-63
2022/01/20 07:53:27;;;;;;;26.13;15.30;;;;;;;-1.46;51.76;95420.59;5017120;28;20227;-65
2022/01/20 07:55:52;;;;;;;26.47;14.40;;;;;;;-1.44;51.42;95411.06;5011832;28;20227;-65
2022/01/20 07:58:19;;;;;;;24.00;14.53;;;;;;;-1.30;50.79;95404.44;5010873;28;20305;-66
2022/01/20 08:00:44;;;;;;;22.47;13.33;;;;;;;-1.27;50.99;95412.03;5013047;28;20207;-64
2022/01/20 08:03:10;;;;;;;18.03;14.00;;;;;;;-1.32;50.83;95412.22;5011844;28;20220;-64
2022/01/20 08:05:36;;;;;;;21.27;13.50;;;;;;;-1.23;50.78;95410.97;5012786;28;20278;-65
2022/01/20 08:08:02;;;;;;;26.07;13.60;;;;;;;-1.12;50.83;95419.06;5018936;28;20227;-64
2022/01/20 08:10:27;;;;;;;20.83;13.17;;;;;;;-1.16;50.86;95428.69;5015666;28;20238;-65
2022/01/20 08:12:54;;;;;;;19.50;13.80;;;;;;;-1.04;50.23;95431.59;5027177;28;20231;-65
2022/01/20 08:15:20;;;;;;;21.00;13.67;;;;;;;-1.06;50.54;95429.09;5019417;28;20219;-64
2022/01/20 08:17:47;;;;;;;19.27;13.13;;;;;;;-0.95;50.47;95424.25;5017312;28;20221;-65
2022/01/20 08:20:12;;;;;;;22.53;13.63;;;;;;;-0.72;49.87;95417.19;5014714;28;20242;-65
2022/01/20 08:22:38;;;;;;;23.37;14.43;;;;;;;-0.86;50.02;95417.81;5014402;28;20258;-64
2022/01/20 08:25:10;;;;;;;21.50;13.47;;;;;;;-0.61;49.43;95406.34;5028233;28;20288;-63
2022/01/20 08:27:39;;;;;;;16.93;11.90;;;;;;;-0.57;48.93;95410.44;5011207;28;20211;-64
2022/01/20 08:30:07;;;;;;;21.10;13.37;;;;;;;-0.59;49.21;95402.75;5015755;28;20246;-66
2022/01/20 08:32:32;;;;;;;21.00;12.70;;;;;;;-0.56;48.69;95394.88;5017630;28;20233;-63
2022/01/20 08:34:59;;;;;;;23.17;12.47;;;;;;;-0.59;48.53;95400.16;5015033;28;20254;-64
2022/01/20 08:37:25;;;;;;;17.60;11.73;;;;;;;-0.49;48.15;95403.13;5016470;28;20235;-63
2022/01/20 08:39:51;;;;;;;21.77;14.20;;;;;;;-0.52;48.35;95382.63;5017851;28;20225;-65
2022/01/20 08:42:16;;;;;;;20.80;13.70;;;;;;;-0.43;48.42;95396.81;5015958;28;20217;-65
2022/01/20 08:44:42;;;;;;;23.70;13.87;;;;;;;-0.43;48.59;95394.25;5016863;28;20277;-65
2022/01/20 08:47:15;;;;;;;21.33;13.67;;;;;;;-0.39;48.32;95383.69;5016327;28;20230;-64
2022/01/20 08:49:41;;;;;;;21.10;13.03;;;;;;;-0.15;47.82;95381.63;5012723;28;20257;-64
2022/01/20 08:52:06;;;;;;;24.10;12.87;;;;;;;0.16;47.72;95393.81;5014697;28;20308;-66
2022/01/20 08:54:33;;;;;;;24.60;13.80;;;;;;;0.21;47.20;95383.22;5014314;28;20202;-65
2022/01/20 08:56:59;;;;;;;20.37;12.20;;;;;;;0.37;46.12;95378.06;5012454;28;20206;-63
2022/01/20 08:59:26;;;;;;;22.60;12.10;;;;;;;0.37;46.35;95378.06;5016116;28;20229;-65
2022/01/20 09:01:51;;;;;;;23.00;12.50;;;;;;;0.41;45.82;95372.66;5015415;28;20235;-70
2022/01/20 09:04:17;;;;;;;25.53;12.10;;;;;;;0.54;45.65;95390.13;5016072;28;20229;-66
2022/01/20 09:06:42;;;;;;;25.00;12.70;;;;;;;0.50;45.56;95389.44;5013935;28;20203;-64
2022/01/20 09:09:08;;;;;;;25.00;12.67;;;;;;;0.64;45.33;95388.69;5014392;28;20258;-64
2022/01/20 09:11:38;;;;;;;21.67;12.67;;;;;;;0.73;45.49;95380.44;5015415;28;20268;-63
2022/01/20 09:16:49;;;;;;;27.07;12.70;;;;;;;0.84;44.84;95380.69;5018214;28;20331;-64
2022/01/20 09:19:15;;;;;;;23.53;12.70;;;;;;;0.90;44.81;95383.88;5012912;28;20230;-64
2022/01/20 09:21:40;;;;;;;21.63;12.70;;;;;;;1.03;44.80;95382.25;5008025;28;20203;-64
2022/01/20 09:24:07;;;;;;;23.10;12.87;;;;;;;1.18;44.72;95376.25;5013539;28;20242;-63
2022/01/20 09:26:33;;;;;;;21.57;13.33;;;;;;;1.30;44.37;95365.16;5014019;28;20210;-64
2022/01/20 09:28:58;;;;;;;25.87;13.17;;;;;;;1.45;43.92;95362.66;5013686;28;20276;-64
2022/01/20 09:31:26;;;;;;;26.80;12.50;;;;;;;1.57;43.55;95367.09;5019768;28;20226;-63
2022/01/20 09:33:55;;;;;;;20.80;13.10;;;;;;;1.65;42.99;95357.13;5021436;28;20230;-65
2022/01/20 09:36:22;;;;;;;20.57;13.90;;;;;;;1.54;43.15;95349.13;5016131;28;20281;-64
2022/01/20 09:38:48;;;;;;;21.13;12.50;;;;;;;1.64;43.08;95347.69;5018578;28;20227;-65
2022/01/20 09:41:14;;;;;;;20.93;13.00;;;;;;;1.74;43.27;95348.81;5021310;28;20242;-64
2022/01/20 09:43:40;;;;;;;25.70;13.10;;;;;;;2.02;42.83;95339.41;5017832;28;20230;-64
2022/01/20 09:46:06;;;;;;;23.10;13.17;;;;;;;2.07;42.36;95334.78;5022588;28;20234;-63
2022/01/20 09:48:32;;;;;;;23.37;13.13;;;;;;;2.17;42.22;95329.88;5023173;28;20246;-64
2022/01/20 09:51:00;;;;;;;29.67;13.43;;;;;;;2.37;41.76;95323.44;5020638;28;20277;-65
2022/01/20 09:53:29;;;;;;;24.27;13.13;;;;;;;2.40;41.73;95321.47;5019171;28;20389;-64
2022/01/20 09:55:55;;;;;;;23.87;14.40;;;;;;;2.38;41.65;95309.56;5020760;28;20234;-64
2022/01/20 09:58:20;;;;;;;25.80;13.53;;;;;;;2.59;41.21;95310.81;5017787;28;20280;-65
2022/01/20 10:00:47;;;;;;;22.90;13.30;;;;;;;2.57;40.68;95301.47;5017060;28;20218;-62
2022/01/20 10:03:15;;;;;;;22.67;13.30;;;;;;;2.78;40.48;95301.84;5036943;28;20214;-64
2022/01/20 10:05:42;;;;;;;30.33;14.00;;;;;;;2.85;40.03;95292.75;5018918;28;20237;-64
2022/01/20 10:08:21;;;;;;;23.40;13.07;;;;;;;2.93;40.15;95282.69;5019350;28;20273;-63
2022/01/20 10:11:00;;;;;;;30.63;13.83;;;;;;;3.05;40.34;95274.13;5008310;28;20223;-62
2022/01/20 10:13:32;;;;;;;24.37;13.47;;;;;;;3.18;40.40;95270.69;4993642;28;20231;-63
2022/01/20 10:15:59;;;;;;;27.93;13.57;;;;;;;3.46;39.42;95273.16;4998223;28;20235;-62
2022/01/20 10:18:25;;;;;;;27.80;13.23;;;;;;;3.58;39.09;95257.66;4998994;28;20278;-66
2022/01/20 10:20:59;;;;;;;24.00;14.10;;;;;;;3.72;39.23;95262.78;4999040;28;20282;-63
2022/01/20 10:23:39;;;;;;;31.30;14.20;;;;;;;3.88;38.82;95254.75;4995300;28;20250;-63
2022/01/20 10:26:08;;;;;;;26.50;13.40;;;;;;;3.87;38.78;95246.09;5017566;28;20246;-63
2022/01/20 10:28:55;;;;;;;29.40;13.10;;;;;;;4.04;38.70;95238.91;5020127;28;20215;-63
2022/01/20 10:31:54;;;;;;;22.30;13.13;;;;;;;4.23;37.99;95235.88;5018520;28;20226;-62
2022/01/20 10:34:28;;;;;;;21.10;12.87;;;;;;;4.36;38.02;95234.88;4998672;28;20238;-66
2022/01/20 10:36:55;;;;;;;35.17;14.50;;;;;;;4.55;37.95;95237.00;5010247;28;20346;-64
2022/01/20 10:39:37;;;;;;;27.03;13.50;;;;;;;4.69;37.06;95224.78;5011035;28;20230;-63
2022/01/20 10:42:19;;;;;;;26.27;12.90;;;;;;;4.94;36.42;95229.84;5001982;28;20278;-62
2022/01/20 10:44:52;;;;;;;23.13;13.33;;;;;;;5.08;36.43;95229.69;5031134;28;20233;-65
2022/01/20 10:47:21;;;;;;;24.67;11.80;;;;;;;5.24;35.74;95224.16;5023700;28;20230;-63
2022/01/20 10:49:48;;;;;;;25.27;11.63;;;;;;;5.22;35.53;95218.22;5020370;28;20240;-63
2022/01/20 10:52:16;;;;;;;31.70;14.17;;;;;;;5.22;35.85;95205.19;5042647;28;20226;-63
2022/01/20 10:54:51;;;;;;;24.57;12.73;;;;;;;5.44;35.36;95208.78;5036848;28;20210;-63
2022/01/20 10:57:23;;;;;;;27.93;11.97;;;;;;;5.61;34.91;95197.91;5033057;28;20217;-64
2022/01/20 10:59:53;;;;;;;20.13;11.50;;;;;;;5.83;33.96;95193.66;5019286;28;20289;-66
2022/01/20 11:02:22;;;;;;;25.90;11.70;;;;;;;5.99;33.71;95196.78;5024048;28;20235;-63
2022/01/20 11:04:49;;;;;;;21.70;10.70;;;;;;;6.06;32.77;95184.06;5020225;28;20233;-64
2022/01/20 11:07:15;;;;;;;24.60;11.37;;;;;;;6.12;33.08;95176.59;5022920;28;20238;-65
2022/01/20 11:09:46;;;;;;;25.40;11.43;;;;;;;6.26;33.29;95172.88;5032908;28;20224;-64
2022/01/20 11:12:15;;;;;;;21.60;11.77;;;;;;;6.50;33.42;95175.34;5019222;28;20215;-64
2022/01/20 11:14:42;;;;;;;18.57;11.20;;;;;;;6.71;32.16;95177.16;5013739;28;20249;-64
2022/01/20 11:17:16;;;;;;;19.67;10.47;;;;;;;6.57;32.03;95160.81;5019740;28;20249;-64
2022/01/20 11:19:42;;;;;;;18.63;10.27;;;;;;;6.71;31.61;95161.47;5017477;28;20257;-64
2022/01/20 11:22:11;;;;;;;25.93;10.97;;;;;;;6.99;30.53;95155.66;5014577;28;20244;-64
2022/01/20 11:24:38;;;;;;;21.73;11.20;;;;;;;7.04;30.70;95150.88;5017431;28;20206;-66
2022/01/20 11:27:05;;;;;;;24.43;10.50;;;;;;;7.33;30.03;95149.41;5016747;28;20210;-64
2022/01/20 11:29:50;;;;;;;22.43;10.33;;;;;;;7.38;30.40;95139.41;5017817;28;20225;-69
2022/01/20 11:32:22;;;;;;;21.57;10.30;;;;;;;7.71;29.62;95127.84;5011790;28;20210;-69
2022/01/20 11:35:06;;;;;;;16.30;7.87;;;;;;;7.89;27.41;95130.69;5016941;28;20230;-70
2022/01/20 11:37:41;;;;;;;18.93;7.90;;;;;;;8.11;26.70;95122.59;5014757;28;20230;-71
2022/01/20 11:40:12;;;;;;;8.40;5.30;;;;;;;8.38;24.14;95119.34;5016649;28;20222;-74
2022/01/20 11:42:38;;;;;;;8.67;4.60;;;;;;;8.54;23.48;95131.13;5016584;28;20223;-73
2022/01/20 11:45:35;;;;;;;7.80;2.57;;;;;;;8.45;21.95;95135.41;5015453;28;20218;-76
2022/01/20 11:48:26;;;;;;;8.27;2.53;;;;;;;8.77;21.32;95129.91;5012883;28;20227;-64
2022/01/20 11:51:22;;;;;;;5.03;2.00;;;;;;;9.00;21.36;95129.59;5013782;28;20229;-64
2022/01/20 11:53:59;;;;;;;5.50;2.10;;;;;;;9.34;21.32;95123.91;4997028;28;20258;-64
2022/01/20 11:56:36;;;;;;;4.10;2.43;;;;;;;9.44;20.56;95116.84;5027600;28;20221;-64
2022/01/20 11:59:04;;;;;;;5.10;2.10;;;;;;;9.30;21.01;95112.84;5018349;28;20257;-64
2022/01/20 12:01:41;;;;;;;3.10;1.43;;;;;;;9.30;20.53;95114.66;5032701;28;20255;-65
2022/01/20 12:04:06;;;;;;;2.40;1.80;;;;;;;9.67;20.54;95094.50;5023397;28;20301;-64
2022/01/20 12:06:43;;;;;;;5.57;2.00;;;;;;;9.68;20.41;95097.97;5022754;28;20201;-65
2022/01/20 12:09:08;;;;;;;3.17;1.90;;;;;;;9.64;20.36;95086.91;5035922;28;20228;-64
2022/01/20 12:11:41;;;;;;;3.60;1.83;;;;;;;9.67;20.51;95106.81;5014720;28;20231;-62
2022/01/20 12:14:08;;;;;;;4.57;2.10;;;;;;;9.64;20.98;95105.28;5035994;28;20228;-64
2022/01/20 12:16:35;;;;;;;4.67;2.33;;;;;;;9.82;20.52;95102.75;5032361;28;20226;-65
2022/01/20 12:19:02;;;;;;;5.00;2.40;;;;;;;9.81;20.95;95119.50;5016541;28;20233;-63
2022/01/20 12:21:32;;;;;;;4.50;2.50;;;;;;;9.82;20.80;95096.66;5030438;28;20215;-67
2022/01/20 12:23:59;;;;;;;5.67;2.20;;;;;;;10.22;20.65;95103.38;5019144;28;20233;-66
2022/01/20 12:26:25;;;;;;;3.10;2.30;;;;;;;10.11;20.69;95104.41;5020750;28;20255;-64
2022/01/20 12:29:03;;;;;;;3.50;2.63;;;;;;;10.35;20.60;95096.81;5026588;28;20222;-63
2022/01/20 12:31:28;;;;;;;4.90;2.67;;;;;;;10.38;20.89;95090.44;5013708;28;20234;-63
2022/01/20 12:33:54;;;;;;;6.30;2.87;;;;;;;10.57;20.76;95102.63;5020923;28;20227;-66